createdAt,value
2022-09-07T00:01:01.621Z,1.00
2022-09-07T00:06:33.676Z,1.00
2022-09-07T00:12:05.499Z,1.00
2022-09-07T00:17:37.387Z,1.00
2022-09-07T00:23:09.275Z,1.00
2022-09-07T00:28:40.831Z,0.00
2022-09-07T00:34:12.815Z,1.00
2022-09-07T00:39:44.862Z,1.00
2022-09-07T00:45:16.967Z,1.00
2022-09-07T00:50:48.985Z,1.00
2022-09-07T00:56:20.869Z,0.00
2022-09-07T01:01:52.811Z,1.00
2022-09-07T01:07:24.322Z,1.00
2022-09-07T01:12:56.344Z,1.00
2022-09-07T01:18:28.166Z,1.00
2022-09-07T01:24:00.374Z,1.00
2022-09-07T01:29:32.457Z,1.00
2022-09-07T01:35:04.250Z,1.00
2022-09-07T01:40:36.118Z,1.00
2022-09-07T01:46:08.050Z,0.00
2022-09-07T01:51:40.100Z,0.00
2022-09-07T01:57:11.894Z,1.00
2022-09-07T02:02:43.858Z,1.00
2022-09-07T02:08:15.644Z,1.00
2022-09-07T02:13:47.578Z,0.00
2022-09-07T02:19:19.296Z,1.00
2022-09-07T02:24:51.146Z,2.00
2022-09-07T02:30:23.177Z,1.00
2022-09-07T02:35:54.596Z,1.00
2022-09-07T02:41:26.477Z,2.00
2022-09-07T02:46:58.302Z,1.00
2022-09-07T02:52:30.090Z,0.00
2022-09-07T02:58:01.959Z,1.00
2022-09-07T03:03:33.813Z,0.00
2022-09-07T03:09:05.505Z,1.00
2022-09-07T03:14:37.398Z,1.00
2022-09-07T03:22:30.346Z,0.00
2022-09-07T03:28:02.396Z,1.00
2022-09-07T03:33:34.506Z,2.00
2022-09-07T03:39:06.243Z,1.00
2022-09-07T03:44:37.904Z,0.00
2022-09-07T03:50:09.864Z,2.00
2022-09-07T03:55:41.421Z,2.00
2022-09-07T04:01:13.256Z,2.00
2022-09-07T04:06:44.868Z,3.00
2022-09-07T04:12:16.642Z,6.00
2022-09-07T04:17:48.758Z,15.00
2022-09-07T04:23:20.096Z,39.00
2022-09-07T04:28:52.418Z,89.00
2022-09-07T04:34:24.571Z,148.00
2022-09-07T04:39:56.266Z,249.00
2022-09-07T04:45:27.864Z,422.00
2022-09-07T04:51:02.907Z,419.00
2022-09-07T04:56:31.423Z,760.00
2022-09-07T05:02:03.244Z,1911.00
2022-09-07T05:07:35.103Z,4490.00
2022-09-07T05:13:06.601Z,7020.00
2022-09-07T05:18:38.400Z,10139.00
2022-09-07T05:24:10.126Z,8061.00
2022-09-07T05:35:13.473Z,3589.00
2022-09-07T05:40:45.112Z,3413.00
2022-09-07T05:46:16.937Z,2764.00
2022-09-07T05:51:48.922Z,2741.00
2022-09-07T05:57:20.463Z,3903.00
2022-09-07T06:02:52.430Z,2949.00
2022-09-07T06:08:23.834Z,3328.00
2022-09-07T06:13:55.852Z,5911.00
2022-09-07T06:19:27.840Z,8185.00
2022-09-07T06:24:59.383Z,9364.00
2022-09-07T06:36:03.231Z,24574.00
2022-09-07T06:47:06.516Z,16332.00
2022-09-07T06:58:10.122Z,0.00
2022-09-07T07:03:42.093Z,0.00
2022-09-07T07:09:14.043Z,0.00
2022-09-07T07:14:45.429Z,0.00
2022-09-07T07:20:17.294Z,0.00
2022-09-07T07:25:49.087Z,0.00
2022-09-07T07:31:21.097Z,0.00
2022-09-07T07:36:53.176Z,0.00
2022-09-07T07:42:24.776Z,0.00
2022-09-07T07:47:56.511Z,0.00
2022-09-07T07:53:43.650Z,0.00
2022-09-07T07:59:00.131Z,0.00
2022-09-07T08:10:01.338Z,0.00
2022-09-07T08:15:33.339Z,2.00
2022-09-07T08:21:04.865Z,0.00
2022-09-07T08:32:06.721Z,0.00
2022-09-07T08:37:38.532Z,0.00
2022-09-07T08:43:10.377Z,0.00
2022-09-07T08:48:42.525Z,0.00
2022-09-07T08:54:14.335Z,0.00
2022-09-07T08:59:46.018Z,0.00
2022-09-07T09:10:47.223Z,0.00
2022-09-07T09:16:19.498Z,0.00
2022-09-07T09:21:51.103Z,0.00
2022-09-07T09:27:22.814Z,1504.00
2022-09-07T09:32:54.679Z,14669.00
2022-09-07T09:38:27.091Z,18257.00
2022-09-07T09:43:58.859Z,19422.00
2022-09-07T09:49:30.422Z,17686.00
2022-09-07T09:55:33.997Z,16028.00
2022-09-07T10:00:34.728Z,14227.00
2022-09-07T10:06:05.805Z,12635.00
2022-09-07T10:17:09.698Z,12963.00
2022-09-07T10:22:41.247Z,16568.00
2022-09-07T10:28:13.319Z,18419.00
2022-09-07T10:34:25.671Z,10837.00
2022-09-07T10:39:16.726Z,9939.00
2022-09-07T10:50:24.638Z,13578.00
2022-09-07T10:55:49.296Z,13814.00
2022-09-07T11:01:21.218Z,12250.00
2022-09-07T11:06:52.993Z,10833.00
2022-09-07T11:12:27.953Z,13981.00
2022-09-07T11:17:56.527Z,9630.00
2022-09-07T11:23:28.183Z,17076.00
2022-09-07T11:34:32.020Z,20270.00
2022-09-07T11:40:03.553Z,19366.00
2022-09-07T11:45:35.561Z,18039.00
2022-09-07T11:51:07.347Z,20471.00
2022-09-07T11:56:39.129Z,23290.00
2022-09-07T12:02:10.948Z,19864.00
2022-09-07T12:07:42.738Z,13547.00
2022-09-07T12:13:14.479Z,15862.00
2022-09-07T12:18:46.253Z,20748.00
2022-09-07T12:24:17.833Z,20280.00
2022-09-07T12:29:49.583Z,23188.00
2022-09-07T12:35:21.298Z,19590.00
2022-09-07T12:40:53.495Z,18944.00
2022-09-07T12:46:25.552Z,19810.00
2022-09-07T12:52:06.868Z,25057.00
2022-09-07T12:57:29.378Z,17841.00
2022-09-07T13:08:30.872Z,20533.00
2022-09-07T13:14:04.526Z,23830.00
2022-09-07T13:19:35.431Z,22838.00
2022-09-07T13:30:36.291Z,19768.00
2022-09-07T13:36:08.064Z,16964.00
2022-09-07T13:41:39.960Z,16745.00
2022-09-07T13:47:11.520Z,20434.00
2022-09-07T13:52:45.776Z,22020.00
2022-09-07T14:03:49.129Z,24430.00
2022-09-07T14:09:20.781Z,23953.00
2022-09-07T14:14:52.614Z,24150.00
2022-09-07T14:20:24.596Z,18493.00
2022-09-07T14:31:28.213Z,21642.00
2022-09-07T14:37:01.445Z,16974.00
2022-09-07T14:42:32.145Z,17247.00
2022-09-07T14:48:03.986Z,20046.00
2022-09-07T14:53:36.106Z,21210.00
2022-09-07T14:59:07.547Z,18981.00
2022-09-07T15:15:43.149Z,20262.00
2022-09-07T15:21:14.626Z,14229.00
2022-09-07T15:32:18.215Z,17074.00
2022-09-07T15:38:06.053Z,17053.00
2022-09-07T15:43:23.320Z,15824.00
2022-09-07T15:48:53.439Z,14866.00
2022-09-07T15:54:25.600Z,12550.00
2022-09-07T15:59:57.882Z,13447.00
2022-09-07T16:05:31.314Z,10619.00
2022-09-07T16:11:12.503Z,9760.00
2022-09-07T16:22:07.290Z,10540.00
2022-09-07T16:27:38.896Z,11041.00
2022-09-07T16:33:10.889Z,9375.00
2022-09-07T16:35:22.166Z,8820.00
2022-09-07T16:40:53.620Z,8394.00
2022-09-07T16:46:25.311Z,7193.00
2022-09-07T16:51:57.683Z,5983.00
2022-09-07T16:58:35.186Z,5440.00
2022-09-07T17:03:01.330Z,5068.00
2022-09-07T17:08:33.379Z,4867.00
2022-09-07T17:14:04.926Z,4377.00
2022-09-07T17:19:37.012Z,3626.00
2022-09-07T17:25:09.201Z,2630.00
2022-09-07T17:36:13.422Z,1200.00
2022-09-07T17:41:45.639Z,735.00
2022-09-07T17:47:17.347Z,399.00
2022-09-07T17:52:52.691Z,212.00
2022-09-07T17:58:20.890Z,101.00
2022-09-07T18:03:52.489Z,43.00
2022-09-07T18:09:23.632Z,16.00
2022-09-07T18:14:55.567Z,5.00
2022-09-07T18:20:27.405Z,3.00
2022-09-07T18:25:59.025Z,8.00
2022-09-07T18:31:30.471Z,9.00
2022-09-07T18:37:02.497Z,8.00
2022-09-07T18:42:34.584Z,8.00
2022-09-07T18:48:06.093Z,8.00
2022-09-07T18:53:37.591Z,8.00
2022-09-07T18:59:09.394Z,8.00
2022-09-07T19:12:24.189Z,7.00
2022-09-07T19:17:56.200Z,6.00
2022-09-07T19:25:40.471Z,8.00
2022-09-07T19:31:12.461Z,7.00
2022-09-07T19:36:44.138Z,2.00
2022-09-07T19:44:42.715Z,4.00
2022-09-07T19:50:14.397Z,2.00
2022-09-07T19:55:45.903Z,4.00
2022-09-07T20:01:17.357Z,3.00
2022-09-07T20:06:48.899Z,3.00
2022-09-07T20:12:20.351Z,3.00
2022-09-07T20:17:51.718Z,3.00
2022-09-07T20:23:29.258Z,2.00
2022-09-07T20:34:32.548Z,3.00
2022-09-07T20:40:10.174Z,3.00
2022-09-07T20:45:47.755Z,3.00
2022-09-07T20:51:21.003Z,2.00
2022-09-07T20:56:59.989Z,4.00
2022-09-07T21:02:28.296Z,3.00
2022-09-07T21:13:29.107Z,2.00
2022-09-07T21:19:00.260Z,1.00
2022-09-07T21:24:31.670Z,3.00
2022-09-07T21:30:03.259Z,3.00
2022-09-07T21:35:34.738Z,2.00
2022-09-07T21:41:06.051Z,3.00
2022-09-07T21:43:29.017Z,3.00
2022-09-07T21:49:00.193Z,3.00
2022-09-07T21:54:31.674Z,2.00
2022-09-07T22:00:03.244Z,3.00
2022-09-07T22:05:34.673Z,1.00
2022-09-07T22:11:05.945Z,3.00
2022-09-07T22:16:37.452Z,3.00
2022-09-07T22:22:08.730Z,3.00
2022-09-07T22:27:40.084Z,1.00
2022-09-07T22:38:41.039Z,1.00
2022-09-07T22:44:12.592Z,1.00
2022-09-07T22:49:43.969Z,1.00
2022-09-07T22:55:15.690Z,1.00
2022-09-07T23:00:47.241Z,1.00
2022-09-07T23:06:18.668Z,2.00
2022-09-07T23:11:49.872Z,1.00
2022-09-07T23:17:21.319Z,0.00
2022-09-07T23:22:53.075Z,0.00
2022-09-07T23:28:24.852Z,1.00
2022-09-07T23:39:26.209Z,0.00
2022-09-07T23:50:27.517Z,1.00
2022-09-07T23:55:59.373Z,1.00
